Capitol Logistics 431


KMSY
Louis Armstrong New Orleans International Airport
New Orleans, Louisiana, US
KBNA
Nashville International Airport
Nashville, Tennessee, US

Activity Log

Date Flight Route Aircraft Duration
05/11/2020 CPX431 LBY MEI IGB HRTUN CHSNE2 B752 1h 16m
03/06/2020 CPX431 LBY MEI IGB HRTUN CHSNE2 B752 1h 16m
09/22/2019 CPX431 N0455F410 HRV MCB J35 XESSS/N0459F350 J35 MEM CHSNE2 B752 1h 29m
06/11/2019 CPX431 KMSY LBY MEI IGB HRTUN CHSNE2 KBNA B752 1h 14m
02/17/2019 CPX431 LBY MEI IGB HRTUN CHSNE2 B752 1h 18m

Route Details

Aircraft Information
Primary: Boeing 757-200SF
Backup: Boeing 737-800BCF
Route Data
Distance: 410nm
Sched. Duration: 1h 19m
Avg. Duration: 1h 19m (-1m)
Times Flown: 5
Recm'd Route: LBY MEI IGB HRTUN CHSNE2
Planned Altitude: 37,000ft
Origin Wx: KMSY 060634Z 09005KT 10SM FEW020 SCT025 OVC080 28/23 A2990 RMK AO2 T02780233
Dest. Wx: KBNA 060553Z 00000KT 10SM FEW250 24/20 A2998 RMK AO2 SLP143 T02390200 10294 20239 403280217 51002
Notes:

Financial History
Total Freight: 244,211lbs
Average Load: 48,842lbs/flt
Fuel Used: 49,676lbs
Avg. Fuel Used: 9,935lbs/flt
Fuel Expense: $51,663
Avg. Fuel Expense: $10,333
Avg. Fuel Cost: $1.04/lbs
Total Gross Income: $327,329
Pilot Pay: $885
Total Expenses: $35,612
Total Revenue: $238,871
Average Revenue: $65,465.78